• Join FlightAware (Why Join?)
  • Login
  • US Flag 
11:07PM EST


 

Airport Tracker/Info


-or-


 

Live Flight TrackerFlight Track Log ✈ CPZ5750 ✈ 04-Jul-2013 ✈ KMSP - KALB

Flight Track Log - Related Links

Times and Time Zones

All times are in EDT time to prevent confusion due to time zone crossing. See the CPZ5750 flight status page for this flight to view local times or setup timezone preferences in your user account.

Time Position Orientation Groundspeed Altitude Reporting Facility
EDT Latitude Longitude Course Direction KTS MPH feet Rate Location/Type
05:19PM 44.8667 -93.1500 70° East 175 201 2,500  Level Minneapolis TRACON
05:20PM 44.8722 -93.1139 78° East 185 213 2,900 1,620 Climbing Minneapolis Center
05:21PM 44.8850 -93.0147 80° East 280 322 5,000 2,640 Climbing Minneapolis Center
05:22PM 45.0420 -92.6115 68° East  Level FlightAware Approximate
05:22PM 44.9367 -92.9267 50° Northeast 291 335 8,400  Level Minneapolis Center
05:23PM 45.0852 -92.4594 70° East  Level FlightAware Approximate
05:23PM 45.0028 -92.8122 51° Northeast 314 361 11,000  Level Minneapolis Center
05:24PM 45.1199 -92.3038 70° East  Level FlightAware Approximate
05:24PM 45.0700 -92.6953 51° Northeast 381 438 12,800  Level Minneapolis Center
05:25PM 45.1589 -92.1479 70° East  Level FlightAware Approximate
05:25PM 45.1389 -92.5761 51° Northeast 393 452 15,100  Level Minneapolis Center
05:26PM 45.2092 -92.4531 51° Northeast 404 465 17,300 2,100 Climbing Minneapolis Center
05:27PM 45.2789 -92.3294 51° Northeast 402 463 19,400 1,800 Climbing Minneapolis Center
05:28PM 45.3217 -92.1761 68° East 417 480 21,100 1,560 Climbing Minneapolis Center
05:29PM 45.3417 -92.0058 80° East 434 499 22,600 1,800 Climbing Minneapolis Center
05:30PM 45.3656 -91.8358 79° East 438 504 24,900 1,860 Climbing Minneapolis Center
05:31PM 45.3875 -91.6692 79° East 432 497 26,500 1,320 Climbing Minneapolis Center
05:32PM 45.4089 -91.4986 80° East 437 503 27,700 1,140 Climbing Minneapolis Center
05:33PM 45.4367 -91.2908 79° East 446 513 28,900 1,020 Climbing Minneapolis Center
05:34PM 45.4583 -91.1244 79° East 451 519 29,900 840 Climbing Minneapolis Center
05:35PM 45.4689 -90.9469 85° East 452 520 30,700 660 Climbing Minneapolis Center
05:36PM 45.4467 -90.7644 100° East 466 536 31,300 720 Climbing Minneapolis Center
05:37PM 45.4258 -90.5803 99° East 471 542 32,200 780 Climbing Minneapolis Center
05:38PM 45.4025 -90.3608 99° East 470 541 32,900 780 Climbing Minneapolis Center
05:39PM 45.3808 -90.1789 100° East 469 540 33,900 780 Climbing Minneapolis Center
05:40PM 45.3617 -89.9994 99° East 464 534 34,500 660 Climbing Minneapolis Center
05:41PM 45.3403 -89.8197 100° East 464 534 35,300 720 Climbing Minneapolis Center
05:42PM 45.3194 -89.6419 99° East 462 532 36,000 660 Climbing Minneapolis Center
05:44PM 45.2981 -89.4642 100° East 459 528 36,700 480 Climbing Minneapolis Center
05:45PM 45.2772 -89.2883 99° East 457 526 37,000 120 Climbing Minneapolis Center
05:46PM 45.2503 -89.0717 100° East 463 533 37,000  Level Minneapolis Center
05:47PM 45.2267 -88.8844 100° East 476 548 37,000  Level Minneapolis Center
05:48PM 45.2031 -88.6947 100° East 488 562 37,000  Level Minneapolis Center
05:49PM 45.1789 -88.5044 100° East 488 562 37,000  Level Minneapolis Center
05:50PM 45.1536 -88.3136 101° East 494 568 37,000  Level Minneapolis Center
05:51PM 45.1294 -88.1233 100° East 492 566 37,000  Level Minneapolis Center
05:52PM 45.1036 -87.9333 101° East 494 568 37,000  Level Minneapolis Center
05:53PM 45.0778 -87.7422 101° East 497 572 37,000  Level Minneapolis Center
05:54PM 45.0594 -87.5486 98° East 497 572 37,000  Level Minneapolis Center
05:55PM 45.0386 -87.3553 99° East 499 574 37,000  Level Minneapolis Center
05:56PM 45.0150 -87.1228 98° East 500 575 37,000  Level Minneapolis Center
05:57PM 44.9944 -86.9311 99° East 496 571 37,000  Level Minneapolis Center
05:58PM 44.9750 -86.7547 99° East 485 558 37,000  Level Minneapolis Center
05:59PM 44.9533 -86.5633 99° East 490 564 37,000  Level Minneapolis Center
06:00PM 44.9319 -86.3722 99° East 492 566 37,000  Level Minneapolis Center
06:01PM 44.9108 -86.1811 99° East 493 567 37,000  Level Minneapolis Center
06:02PM 44.8925 -86.0278 100° East 495 570 37,000  Level Minneapolis Center
06:03PM 44.8600 -85.7575 100° East 499 574 37,000  Level Minneapolis Center
06:04PM 44.8406 -85.5797 99° East 498 573 37,000 -600 Level Minneapolis Center
06:05PM 44.8172 -85.3883 100° East 497 572 35,800 -1,020 Descending Minneapolis Center
06:06PM 44.7939 -85.2022 100° East 486 559 35,000 -420 Descending Minneapolis Center
06:07PM 44.7711 -85.0147 100° East 487 560 35,000  Level Minneapolis Center
06:08PM 44.7417 -84.7858 100° East 494 568 35,000  Level Minneapolis Center
06:09PM 44.7167 -84.5928 100° East 502 578 35,000  Level Minneapolis Center
06:10PM 44.6911 -84.3967 100° East 508 585 35,000  Level Minneapolis Center
06:11PM 44.6658 -84.2019 100° East 509 586 35,000  Level Minneapolis Center
06:12PM 44.6381 -84.0078 101° East 508 585 35,000  Level Minneapolis Center
06:13PM 44.6122 -83.8139 101° East 508 585 35,000  Level Minneapolis Center
06:14PM 44.5875 -83.6236 100° East 502 578 35,000  Level Minneapolis Center
06:15PM 44.5597 -83.4356 102° East 497 572 35,000  Level Minneapolis Center
06:16PM 44.5319 -83.2447 101° East 498 573 35,000 -60 Level Minneapolis Center
06:17PM 44.5072 -83.0547 100° East 498 573 34,900  Descending Minneapolis Center
06:18PM 44.4792 -82.8664 102° East 497 572 35,000  Climbing Minneapolis Center
06:19PM 44.4506 -82.6639 101° East 496 571 35,000  Level Minneapolis Center
06:21PM 44.3833 -82.3000 104° East 500 575 35,000  Level Toronto Center
06:22PM 44.3500 -82.1000 103° East 490 564 35,000  Level Toronto Center
06:23PM 44.3333 -81.9167 97° East 490 564 35,000  Level Toronto Center
06:24PM 44.3000 -81.7333 104° East 490 564 35,000  Level Toronto Center
06:25PM 44.2667 -81.5500 104° East 490 564 35,000  Level Toronto Center
06:26PM 44.2333 -81.3500 103° East 490 564 35,000  Level Toronto Center
06:27PM 44.2000 -81.1667 104° East 490 564 35,000  Level Toronto Center
06:28PM 44.1667 -80.9833 104° East 490 564 35,000  Level Toronto Center
06:29PM 44.1500 -80.8167 98° East 490 564 35,000  Level Toronto Center
06:30PM 44.1167 -80.6000 102° East 490 564 35,000  Level Toronto Center
06:31PM 44.0833 -80.4167 104° East 500 575 35,000  Level Toronto Center
06:32PM 44.0500 -80.2333 104° East 490 564 35,000  Level Toronto Center
06:33PM 44.0167 -80.0500 104° East 490 564 35,000  Level Toronto Center
06:34PM 43.9833 -79.8667 104° East 500 575 35,000  Level Toronto Center
06:35PM 43.9500 -79.6833 104° East 500 575 35,000  Level Toronto Center
06:36PM 43.9167 -79.5000 104° East 500 575 35,000  Level Toronto Center
06:37PM 43.8833 -79.3167 104° East 500 575 35,000  Level Toronto Center
06:38PM 43.8500 -79.1167 103° East 490 564 35,000  Level Toronto Center
06:39PM 43.8333 -78.9333 97° East 490 564 35,000  Level Toronto Center
06:40PM 43.8000 -78.7500 104° East 490 564 35,000  Level Toronto Center
06:41PM 43.7667 -78.5667 104° East 500 575 35,000  Level Toronto Center
06:42PM 43.7167 -78.3833 111° Southeast 490 564 35,000  Level Toronto Center
06:43PM 43.6833 -78.2000 104° East 490 564 35,000 -420 Level Toronto Center
06:44PM 43.6500 -78.0167 104° East 500 575 34,200 -900 Descending Toronto Center
06:45PM 43.6167 -77.8333 104° East 490 564 33,300 -960 Descending Toronto Center
06:46PM 43.5914 -77.6942 104° East 488 562 32,400 -1,020 Descending Cleveland Center
06:47PM 43.5781 -77.5056 96° East 488 562 31,400 -1,020 Descending Cleveland Center
06:49PM 43.5581 -77.2000 95° East 492 566 29,800 -960 Descending Boston Center
06:50PM 43.5389 -77.0064 98° East 503 579 29,000 -420 Descending Boston Center
06:51PM 43.5128 -76.8183 101° East 503 579 29,000  Level Boston Center
06:52PM 43.4944 -76.6450 98° East 508 585 29,000  Level Boston Center
06:53PM 43.4681 -76.4514 101° East 508 585 29,000  Level Boston Center
06:54PM 43.4431 -76.2639 100° East 508 585 29,000  Level Boston Center
06:55PM 43.4203 -76.0708 99° East 508 585 29,000  Level Boston Center
06:56PM 43.3969 -75.8778 99° East 508 585 29,000  Level Boston Center
06:57PM 43.3733 -75.6908 100° East 508 585 29,000 -240 Level Boston Center
06:58PM 43.3494 -75.4983 100° East 508 585 28,500 -1,380 Descending Boston Center
06:59PM 43.3161 -75.2567 101° East 503 579 26,000 -2,760 Descending Boston Center
07:00PM 43.2869 -75.0756 102° East 501 577 23,000 -2,820 Descending Boston Center
07:01PM 43.2278 -74.9250 118° Southeast 461 531 20,400 -2,580 Descending Boston Center
07:02PM 43.1683 -74.7831 120° Southeast 442 509 17,900 -2,400 Descending Boston Center
07:03PM 43.1167 -74.6586 120° Southeast 423 487 15,700 -2,280 Descending Boston Center
07:04PM 43.0547 -74.5172 121° Southeast 402 463 13,400 -1,440 Descending Boston Center
07:05PM 43.0047 -74.3992 120° Southeast 397 457 12,900 -660 Descending Boston Center
07:06PM 42.9653 -74.2531 110° East 371 427 12,000 -1,080 Descending Boston Center
07:07PM 42.9528 -74.1167 97° East 340 391 10,600 -1,920 Descending Boston Center
07:08PM 42.9403 -73.9831 97° East 328 377 8,200 -1,800 Descending Boston Center
07:09PM 42.9311 -73.8833 97° East 307 353 7,000 -1,440 Descending Boston Center
07:10PM 42.9050 -73.7978 113° Southeast 263 303 5,400 -2,160 Descending Boston Center
07:11PM 42.8531 -73.7939 177° South 186 214 2,700 -2,700 Descending Boston Center